CheckWX is a tool to help pilots better visualize weather data.  It is not intended as a substitute for an official pre-flight weather briefing.

00:01:21 UTC

LLHA METAR
Haifa International Airport
Haifa, Israel
Current

7 hours ago

LLHA 041650Z 30007KT 9999 VCFG SCT016 27/23 Q1005
Observed
Jul-4 @ 16:50 UTC
Wind
  • 300° at 7 KTS
Visibility
10,000+ meters
Flight Rules
VFR
Conditions
Area Fog
Cloud Levels
  • Scattered at 1,600' AGL
Temperature
27°C / 81°F
Dewpoint
23°C / 73°F
Humidity
79%
Altimeter
29.68" Hg
Pressure
1004.92 hPa
Previous

8 hours ago

LLHA 041550Z 30008KT 9999 SCT025 28/22 Q1005
Observed
Jul-4 @ 15:50 UTC
Wind
  • 300° at 8 KTS
Visibility
10,000+ meters
Flight Rules
VFR
Cloud Levels
  • Scattered at 2,500' AGL
Temperature
28°C / 82°F
Dewpoint
22°C / 72°F
Humidity
70%
Altimeter
29.68" Hg
Pressure
1004.92 hPa
Previous

9 hours ago

LLHA 041450Z 30009KT 9999 FEW025 29/22 Q1005
Observed
Jul-4 @ 14:50 UTC
Wind
  • 300° at 9 KTS
Visibility
10,000+ meters
Flight Rules
VFR
Cloud Levels
  • Few at 2,500' AGL
Temperature
29°C / 84°F
Dewpoint
22°C / 72°F
Humidity
66%
Altimeter
29.68" Hg
Pressure
1004.92 hPa